Time;durP1;ratioP1;P1;durP2;ratioP2;P2;SDS_P1;SDS_P2;PMS_P1;PMS_P2;Temp;Humidity;BMP_temperature;BMP_pressure;BME280_temperature;BME280_humidity;BME280_pressure;Samples;Min_cycle;Max_cycle;Signal;HPM_P1;HPM_P2
2021/09/19 00:01:36;;;;;;;13.18;8.52;;;435.80;2355.20;;;;;;5058335;28;20448;-84
2021/09/19 00:04:02;;;;;;;10.60;7.55;;;435.80;2355.20;;;;;;5058473;28;20055;-84
2021/09/19 00:06:28;;;;;;;11.68;7.55;;;435.80;2355.20;;;;;;5058096;28;20036;-84
2021/09/19 00:08:54;;;;;;;10.38;7.10;;;435.90;2355.20;;;;;;5057933;28;20036;-84
2021/09/19 00:11:21;;;;;;;9.77;7.82;;;435.80;2355.20;;;;;;5058262;28;20036;-83
2021/09/19 00:13:47;;;;;;;12.27;7.32;;;435.90;2355.20;;;;;;5057900;28;20388;-83
2021/09/19 00:16:13;;;;;;;9.80;7.82;;;436.00;2355.20;;;;;;5058249;28;20024;-82
2021/09/19 00:18:39;;;;;;;10.02;8.15;;;435.90;2355.20;;;;;;5058124;28;20074;-83
2021/09/19 00:21:05;;;;;;;15.43;9.13;;;435.90;2355.20;;;;;;5057815;28;20431;-83
2021/09/19 00:23:31;;;;;;;12.00;8.15;;;436.00;2355.20;;;;;;5058112;28;20036;-81
2021/09/19 00:25:57;;;;;;;11.07;8.40;;;436.00;2355.20;;;;;;5058141;28;20067;-82
2021/09/19 00:28:22;;;;;;;12.23;8.70;;;436.00;2355.20;;;;;;5057768;28;20025;-83
2021/09/19 00:30:48;;;;;;;11.38;9.05;;;435.70;2355.20;;;;;;5057995;28;20077;-83
2021/09/19 00:33:14;;;;;;;11.32;9.20;;;435.70;2355.20;;;;;;5075877;28;20463;-81
2021/09/19 00:35:40;;;;;;;12.05;10.20;;;435.50;2355.20;;;;;;5057967;28;20029;-83
2021/09/19 00:38:06;;;;;;;12.13;10.82;;;435.30;2355.20;;;;;;5057980;28;20109;-85
2021/09/19 00:40:32;;;;;;;11.55;8.80;;;435.20;2355.20;;;;;;5057522;28;20043;-83
2021/09/19 00:42:58;;;;;;;11.23;8.70;;;435.50;2355.20;;;;;;5044819;28;20184;-84
2021/09/19 00:45:24;;;;;;;10.65;9.30;;;435.50;2355.20;;;;;;5075465;28;20123;-83
2021/09/19 00:47:51;;;;;;;11.05;8.52;;;435.50;2355.20;;;;;;5057433;28;20055;-84
2021/09/19 00:50:20;;;;;;;10.45;8.32;;;435.30;2355.20;;;;;;5057630;28;20029;-82
2021/09/19 00:52:46;;;;;;;12.80;8.85;;;435.80;2355.20;;;;;;5057749;28;20127;-83
2021/09/19 00:55:15;;;;;;;10.70;8.48;;;435.90;2355.20;;;;;;5057437;28;20025;-83
2021/09/19 00:57:46;;;;;;;10.95;8.73;;;435.90;2355.20;;;;;;5057541;28;20123;-82
2021/09/19 01:00:19;;;;;;;10.73;7.90;;;436.00;2355.20;;;;;;5075624;28;20028;-81
2021/09/19 01:02:45;;;;;;;10.48;8.40;;;436.10;2355.20;;;;;;5074622;28;20361;-81
2021/09/19 01:05:12;;;;;;;14.15;9.60;;;436.00;2355.20;;;;;;5074601;28;20039;-83
2021/09/19 01:07:39;;;;;;;11.82;9.23;;;435.70;2355.20;;;;;;5057216;28;20119;-82
2021/09/19 01:10:05;;;;;;;12.45;9.32;;;435.70;2355.20;;;;;;5056987;28;20067;-83
2021/09/19 01:12:33;;;;;;;11.25;8.55;;;435.90;2355.20;;;;;;5075018;28;20056;-81
2021/09/19 01:15:00;;;;;;;10.15;8.48;;;435.90;2355.20;;;;;;5075052;28;20104;-83
2021/09/19 01:17:26;;;;;;;10.80;7.13;;;435.90;2355.20;;;;;;5056931;28;20078;-82
2021/09/19 01:19:55;;;;;;;10.30;7.18;;;436.10;2355.20;;;;;;5057050;28;20025;-82
2021/09/19 01:22:36;;;;;;;8.90;6.72;;;436.00;2355.20;;;;;;5060609;28;20039;-81
2021/09/19 01:25:05;;;;;;;11.48;7.78;;;435.90;2355.20;;;;;;5073492;28;20036;-81
2021/09/19 01:27:31;;;;;;;9.50;7.43;;;435.90;2355.20;;;;;;5073461;28;20052;-82
2021/09/19 01:29:57;;;;;;;10.77;8.25;;;435.80;2355.20;;;;;;5074941;28;20031;-82
2021/09/19 01:32:23;;;;;;;10.68;7.57;;;435.80;2355.20;;;;;;5091839;28;20024;-82
2021/09/19 01:34:50;;;;;;;7.50;6.00;;;435.70;2355.20;;;;;;5074458;28;20029;-82
2021/09/19 01:37:16;;;;;;;8.57;6.55;;;435.80;2355.20;;;;;;5065130;28;20035;-83
2021/09/19 01:39:43;;;;;;;8.20;6.63;;;435.90;2355.20;;;;;;5056807;28;20024;-82
2021/09/19 01:42:10;;;;;;;8.50;6.57;;;435.80;2355.20;;;;;;5056448;28;20025;-82
2021/09/19 01:44:36;;;;;;;8.60;6.63;;;435.80;2355.20;;;;;;5056162;28;20098;-81
2021/09/19 01:47:02;;;;;;;7.70;6.55;;;435.80;2355.20;;;;;;5056579;28;20052;-83
2021/09/19 01:49:28;;;;;;;8.35;5.95;;;435.90;2355.20;;;;;;5056503;28;20528;-84
2021/09/19 01:51:54;;;;;;;8.10;6.63;;;435.90;2355.20;;;;;;5056173;28;20127;-82
2021/09/19 01:54:20;;;;;;;9.35;7.50;;;435.80;2355.20;;;;;;5056324;28;20117;-83
2021/09/19 01:56:45;;;;;;;8.32;7.22;;;435.70;2355.20;;;;;;5056400;28;20032;-82
2021/09/19 01:59:11;;;;;;;9.73;8.43;;;435.70;2355.20;;;;;;5055904;28;20465;-83
2021/09/19 02:01:37;;;;;;;10.27;7.90;;;435.70;2355.20;;;;;;5056002;28;20032;-82
2021/09/19 02:04:03;;;;;;;10.95;8.05;;;435.70;2355.20;;;;;;5056047;28;20078;-82
2021/09/19 02:06:29;;;;;;;9.85;8.52;;;435.60;2355.20;;;;;;5055829;28;20048;-83
2021/09/19 02:08:55;;;;;;;9.93;8.15;;;435.50;2355.20;;;;;;5056121;28;20415;-82
2021/09/19 02:11:22;;;;;;;10.45;9.40;;;435.70;2355.20;;;;;;5055716;28;20032;-84
2021/09/19 02:13:49;;;;;;;11.25;8.98;;;435.40;2355.20;;;;;;5056145;28;20028;-83
2021/09/19 02:16:16;;;;;;;12.38;9.45;;;435.40;2355.20;;;;;;5055650;28;20021;-83
2021/09/19 02:18:42;;;;;;;10.68;8.25;;;435.30;2355.20;;;;;;5055921;28;20033;-84
2021/09/19 02:21:10;;;;;;;8.90;7.97;;;435.30;2355.20;;;;;;5073956;28;20108;-83
2021/09/19 02:23:36;;;;;;;9.07;8.15;;;435.40;2355.20;;;;;;5055760;28;20028;-83
2021/09/19 02:26:03;;;;;;;9.73;7.60;;;435.50;2355.20;;;;;;5055552;28;20028;-83
2021/09/19 02:28:29;;;;;;;10.98;9.02;;;435.60;2355.20;;;;;;5055718;28;20134;-82
2021/09/19 02:30:54;;;;;;;10.40;7.78;;;435.50;2355.20;;;;;;5055713;28;20119;-83
2021/09/19 02:33:20;;;;;;;8.95;7.35;;;435.30;2355.20;;;;;;5055408;28;20037;-82
2021/09/19 02:35:46;;;;;;;9.98;7.32;;;435.50;2355.20;;;;;;5055707;28;20021;-82
2021/09/19 02:38:12;;;;;;;11.15;8.15;;;435.50;2355.20;;;;;;5055559;28;20035;-82
2021/09/19 02:40:38;;;;;;;9.55;8.40;;;435.60;2355.20;;;;;;5073013;28;20048;-83
2021/09/19 02:43:04;;;;;;;11.48;8.85;;;435.60;2355.20;;;;;;5055504;28;20033;-82
2021/09/19 02:45:30;;;;;;;9.40;7.28;;;435.30;2355.20;;;;;;5073918;28;20052;-82
2021/09/19 02:47:56;;;;;;;14.13;8.98;;;435.40;2355.20;;;;;;5055292;28;20035;-81
2021/09/19 02:50:24;;;;;;;10.38;8.48;;;435.30;2355.20;;;;;;5055638;28;20025;-83
2021/09/19 02:52:50;;;;;;;9.30;7.60;;;435.40;2355.20;;;;;;5055656;28;20078;-81
2021/09/19 02:55:17;;;;;;;9.57;7.45;;;435.60;2355.20;;;;;;5055302;28;20029;-83
2021/09/19 02:57:43;;;;;;;9.45;8.25;;;435.70;2355.20;;;;;;5055447;28;20028;-83
2021/09/19 03:00:16;;;;;;;8.52;6.93;;;435.70;2355.20;;;;;;5055565;28;20078;-80
2021/09/19 03:02:42;;;;;;;;;;;435.80;2355.20;;;;;;5056039;28;20045;-82
2021/09/19 03:05:09;;;;;;;10.02;8.77;;;435.80;2355.20;;;;;;5055638;28;19904;-82
2021/09/19 03:07:35;;;;;;;9.80;8.23;;;435.60;2355.20;;;;;;5072890;28;20095;-82
2021/09/19 03:10:01;;;;;;;9.13;7.90;;;435.40;2355.20;;;;;;5055481;28;20040;-82
2021/09/19 03:12:27;;;;;;;13.05;7.30;;;435.90;2355.20;;;;;;5054992;28;20056;-81
2021/09/19 03:14:53;;;;;;;12.40;8.07;;;435.50;2355.20;;;;;;5055053;28;20131;-82
2021/09/19 03:17:18;;;;;;;10.48;9.10;;;435.60;2355.20;;;;;;5055298;28;20024;-82
2021/09/19 03:19:44;;;;;;;10.80;8.70;;;435.50;2355.20;;;;;;5055308;28;20435;-83
2021/09/19 03:22:10;;;;;;;11.27;9.40;;;435.40;2355.20;;;;;;5054960;28;20051;-84
2021/09/19 03:24:36;;;;;;;8.90;7.78;;;435.40;2355.20;;;;;;5055121;28;20028;-84
2021/09/19 03:27:02;;;;;;;10.95;7.55;;;435.30;2355.20;;;;;;5055166;28;20118;-83
2021/09/19 03:29:28;;;;;;;10.02;8.38;;;435.40;2355.20;;;;;;5056774;28;20041;-83
2021/09/19 03:31:54;;;;;;;10.95;8.30;;;435.40;2355.20;;;;;;5058894;28;20105;-81
2021/09/19 03:34:19;;;;;;;10.07;8.63;;;435.60;2355.20;;;;;;5058939;28;20021;-84
2021/09/19 03:36:45;;;;;;;13.00;10.25;;;435.50;2355.20;;;;;;5076266;28;20099;-84
2021/09/19 03:39:11;;;;;;;11.85;10.52;;;435.50;2355.20;;;;;;5058768;28;20028;-83
2021/09/19 03:41:37;;;;;;;10.65;9.55;;;435.50;2355.20;;;;;;5058650;28;20112;-82
2021/09/19 03:44:04;;;;;;;10.02;9.02;;;435.50;2355.20;;;;;;5058126;28;20045;-84
2021/09/19 03:46:30;;;;;;;11.93;10.57;;;435.60;2355.20;;;;;;5058766;28;20025;-84
2021/09/19 03:48:56;;;;;;;13.75;10.77;;;435.60;2355.20;;;;;;5058607;28;20028;-84
2021/09/19 03:51:22;;;;;;;12.85;11.00;;;435.40;2355.20;;;;;;5058348;28;20024;-83
2021/09/19 03:53:48;;;;;;;10.38;9.23;;;435.40;2355.20;;;;;;5058534;28;20028;-83
2021/09/19 03:56:15;;;;;;;9.85;8.63;;;435.50;2355.20;;;;;;5057944;28;20025;-82
2021/09/19 03:58:41;;;;;;;9.35;7.90;;;435.70;2355.20;;;;;;5058134;28;20484;-83
2021/09/19 04:01:06;;;;;;;8.38;7.13;;;435.40;2355.20;;;;;;5058111;28;20035;-83
2021/09/19 04:03:32;;;;;;;9.73;7.10;;;435.50;2355.20;;;;;;5057839;28;20470;-83
2021/09/19 04:05:58;;;;;;;8.85;7.65;;;435.60;2355.20;;;;;;5058214;28;20025;-83
2021/09/19 04:08:24;;;;;;;9.98;7.72;;;435.60;2355.20;;;;;;5058159;28;20021;-83
2021/09/19 04:10:50;;;;;;;9.85;7.97;;;435.60;2355.20;;;;;;5057700;28;20511;-83
2021/09/19 04:13:16;;;;;;;14.73;7.10;;;436.00;2355.20;;;;;;5058282;28;20039;-83
2021/09/19 04:15:42;;;;;;;11.65;7.55;;;435.50;2355.20;;;;;;5061492;28;20032;-82
2021/09/19 04:18:08;;;;;;;9.02;7.68;;;435.60;2355.20;;;;;;5059689;28;20017;-82
2021/09/19 04:20:34;;;;;;;7.82;6.82;;;435.60;2355.20;;;;;;5058160;28;20460;-82
2021/09/19 04:23:01;;;;;;;11.93;8.25;;;435.60;2355.20;;;;;;5057903;28;20048;-82
2021/09/19 04:25:27;;;;;;;10.82;7.32;;;435.40;2355.20;;;;;;5057698;28;20025;-83
2021/09/19 04:27:53;;;;;;;8.88;7.25;;;435.50;2355.20;;;;;;5057924;28;20025;-82
2021/09/19 04:30:19;;;;;;;11.20;8.10;;;435.50;2355.20;;;;;;5057815;28;20021;-82
2021/09/19 04:32:45;;;;;;;9.65;8.05;;;435.50;2355.20;;;;;;5057687;28;20029;-82
2021/09/19 04:35:11;;;;;;;9.52;8.02;;;435.40;2355.20;;;;;;5075840;28;20017;-83
2021/09/19 04:37:37;;;;;;;10.70;8.80;;;435.50;2355.20;;;;;;5057776;28;20020;-84
2021/09/19 04:40:06;;;;;;;10.95;9.25;;;435.20;2355.20;;;;;;5057568;28;20108;-83
2021/09/19 04:42:31;;;;;;;10.93;8.98;;;435.30;2355.20;;;;;;5057165;28;20041;-83
2021/09/19 04:44:57;;;;;;;11.35;8.82;;;435.30;2355.20;;;;;;5057610;28;20403;-84
2021/09/19 04:47:23;;;;;;;11.80;9.80;;;435.40;2355.20;;;;;;5057349;28;20028;-83
2021/09/19 04:49:49;;;;;;;9.63;8.35;;;435.30;2355.20;;;;;;5057624;28;20024;-84
2021/09/19 04:52:15;;;;;;;12.00;9.07;;;435.40;2355.20;;;;;;5057142;28;20097;-83
2021/09/19 04:54:41;;;;;;;16.00;9.63;;;435.40;2355.20;;;;;;5057590;28;20036;-84
2021/09/19 04:57:07;;;;;;;11.98;9.00;;;435.50;2355.20;;;;;;5057505;28;20020;-83
2021/09/19 04:59:35;;;;;;;9.75;8.50;;;435.50;2355.20;;;;;;5057202;28;20138;-84
2021/09/19 05:02:01;;;;;;;11.35;8.93;;;435.50;2355.20;;;;;;5057092;28;20044;-85
2021/09/19 05:04:30;;;;;;;9.32;8.30;;;435.50;2355.20;;;;;;5074928;28;20081;-85
2021/09/19 05:06:57;;;;;;;11.75;10.23;;;435.50;2355.20;;;;;;5039950;28;20024;-85
2021/09/19 05:09:23;;;;;;;11.70;10.00;;;435.30;2355.20;;;;;;5056992;28;20384;-84
2021/09/19 05:11:49;;;;;;;12.63;11.15;;;435.20;2355.20;;;;;;5056934;28;20028;-84
2021/09/19 05:14:14;;;;;;;16.77;12.52;;;410.40;2355.20;;;;;;5056880;28;20035;-85
2021/09/19 05:16:40;;;;;;;13.95;12.18;;;410.50;2355.20;;;;;;5057163;28;20028;-85
2021/09/19 05:19:06;;;;;;;16.58;12.38;;;435.30;2355.20;;;;;;5057044;28;20025;-84
2021/09/19 05:21:33;;;;;;;13.57;11.10;;;435.40;2355.20;;;;;;5056642;28;20024;-84
2021/09/19 05:23:59;;;;;;;15.30;11.52;;;435.40;2355.20;;;;;;5057114;28;20028;-84
2021/09/19 05:26:26;;;;;;;20.00;13.90;;;435.50;2355.20;;;;;;5056846;28;20510;-83
2021/09/19 05:28:52;;;;;;;16.42;12.27;;;435.50;2355.20;;;;;;5056705;28;20055;-84
2021/09/19 05:31:17;;;;;;;17.90;13.57;;;435.40;2355.20;;;;;;5056490;28;20028;-84
2021/09/19 05:33:45;;;;;;;18.95;13.07;;;435.40;2355.20;;;;;;5056914;28;20047;-84
2021/09/19 05:36:12;;;;;;;16.80;13.73;;;435.50;2355.20;;;;;;5056486;28;20121;-84
2021/09/19 05:38:37;;;;;;;19.58;14.32;;;435.50;2355.20;;;;;;5056638;28;20036;-84
2021/09/19 05:41:03;;;;;;;19.45;14.68;;;435.30;2355.20;;;;;;5056674;28;20033;-84
2021/09/19 05:43:29;;;;;;;21.65;14.80;;;435.30;2355.20;;;;;;5056130;28;20491;-83
2021/09/19 05:45:55;;;;;;;21.13;14.32;;;435.20;2355.20;;;;;;5056583;28;20443;-84
2021/09/19 05:48:21;;;;;;;18.15;14.20;;;435.30;2355.20;;;;;;5056363;28;20028;-85
2021/09/19 05:50:47;;;;;;;17.55;14.18;;;435.40;2355.20;;;;;;5056484;28;20138;-84
2021/09/19 05:53:13;;;;;;;18.52;13.32;;;435.50;2355.20;;;;;;5056363;28;20033;-84
2021/09/19 05:55:38;;;;;;;16.45;12.38;;;435.60;2355.20;;;;;;5056305;28;20086;-84
2021/09/19 05:58:04;;;;;;;12.98;10.85;;;435.70;2355.20;;;;;;5056422;28;20028;-82
2021/09/19 06:00:30;;;;;;;14.43;11.20;;;435.60;2355.20;;;;;;5074341;28;20366;-83
2021/09/19 06:02:56;;;;;;;10.95;9.18;;;435.60;2355.20;;;;;;5055954;28;20392;-84
2021/09/19 06:05:22;;;;;;;13.88;11.18;;;435.60;2355.20;;;;;;5055974;28;20056;-84
2021/09/19 06:07:48;;;;;;;14.02;10.85;;;435.60;2355.20;;;;;;5056208;28;20078;-83
2021/09/19 06:10:14;;;;;;;15.90;14.13;;;435.60;2355.20;;;;;;5055932;28;20033;-84
2021/09/19 06:12:40;;;;;;;15.30;11.88;;;435.60;2355.20;;;;;;5056098;28;20024;-84
2021/09/19 06:15:07;;;;;;;19.00;13.35;;;435.70;2355.20;;;;;;5056177;28;20111;-84
2021/09/19 06:17:33;;;;;;;15.60;12.38;;;435.80;2355.20;;;;;;5055852;28;20466;-84
2021/09/19 06:19:59;;;;;;;18.13;13.82;;;435.90;2355.20;;;;;;5056045;28;20028;-84
2021/09/19 06:22:25;;;;;;;17.83;12.30;;;435.90;2355.20;;;;;;5056195;28;20117;-84
2021/09/19 06:24:51;;;;;;;22.85;15.52;;;435.90;2355.20;;;;;;5055728;28;20475;-84
2021/09/19 06:27:17;;;;;;;19.27;13.40;;;435.70;2355.20;;;;;;5055952;28;20052;-84
2021/09/19 06:29:43;;;;;;;16.17;12.75;;;435.70;2355.20;;;;;;5055944;28;20107;-84
2021/09/19 06:32:10;;;;;;;19.20;14.00;;;435.90;2355.20;;;;;;5055584;28;20479;-83
2021/09/19 06:34:37;;;;;;;16.35;12.65;;;435.80;2355.20;;;;;;5055943;28;20103;-83
2021/09/19 06:37:04;;;;;;;19.00;13.18;;;435.90;2355.20;;;;;;5055874;28;20036;-82
2021/09/19 06:39:30;;;;;;;19.48;12.40;;;435.90;2355.20;;;;;;5055508;28;20024;-83
2021/09/19 06:41:56;;;;;;;16.90;13.95;;;436.00;2355.20;;;;;;5055709;28;20115;-83
2021/09/19 06:44:22;;;;;;;18.48;14.60;;;436.10;2355.20;;;;;;5073432;28;20049;-83
2021/09/19 06:46:48;;;;;;;18.63;16.23;;;460.80;2380.80;;;;;;5055678;28;20074;-83
2021/09/19 06:49:14;;;;;;;23.00;18.42;;;460.90;2380.80;;;;;;5073719;28;20028;-83
2021/09/19 06:51:40;;;;;;;23.92;17.23;;;460.90;2380.80;;;;;;5055362;28;20029;-83
2021/09/19 06:54:05;;;;;;;21.42;16.92;;;461.00;2380.80;;;;;;5055660;28;20024;-83
2021/09/19 06:56:31;;;;;;;20.73;16.63;;;461.00;2380.80;;;;;;5055685;28;20028;-83
2021/09/19 06:58:58;;;;;;;25.73;18.20;;;461.00;2380.80;;;;;;5055218;28;20116;-82
2021/09/19 07:01:24;;;;;;;22.10;18.77;;;461.10;2380.80;;;;;;5055621;28;20053;-83
2021/09/19 07:03:50;;;;;;;24.15;17.75;;;461.10;2380.80;;;;;;5056639;28;20040;-83
2021/09/19 07:06:17;;;;;;;21.25;16.77;;;461.10;2380.80;;;;;;5059427;28;20053;-80
2021/09/19 07:08:44;;;;;;;20.77;17.50;;;460.90;2380.80;;;;;;5077565;28;20375;-80
2021/09/19 07:11:10;;;;;;;23.08;17.80;;;460.90;2380.80;;;;;;5077609;28;20029;-80
2021/09/19 07:13:36;;;;;;;22.63;16.95;;;461.00;2380.80;;;;;;5059123;28;20051;-80
2021/09/19 07:16:03;;;;;;;19.85;16.13;;;461.00;2380.80;;;;;;5077434;28;20021;-82
2021/09/19 07:18:29;;;;;;;23.30;17.02;;;461.10;2380.80;;;;;;5059658;28;20024;-82
2021/09/19 07:20:55;;;;;;;20.63;17.50;;;461.10;2380.80;;;;;;5059022;28;20460;-82
2021/09/19 07:23:22;;;;;;;24.25;18.05;;;461.10;2380.80;;;;;;5077217;28;20036;-81
2021/09/19 07:25:49;;;;;;;19.08;17.00;;;461.10;2380.80;;;;;;5077148;28;20040;-81
2021/09/19 07:28:15;;;;;;;20.70;16.52;;;461.30;2380.80;;;;;;5058965;28;20454;-81
2021/09/19 07:30:41;;;;;;;20.20;15.25;;;461.30;2380.80;;;;;;5059148;28;20039;-81
2021/09/19 07:33:07;;;;;;;18.52;16.30;;;461.20;2380.80;;;;;;5059098;28;20032;-81
2021/09/19 07:35:34;;;;;;;21.77;16.33;;;461.20;2380.80;;;;;;5058829;28;20143;-82
2021/09/19 07:38:00;;;;;;;22.83;16.27;;;461.40;2380.80;;;;;;5059007;28;20021;-81
2021/09/19 07:40:27;;;;;;;20.50;16.70;;;461.40;2380.80;;;;;;5058730;28;20120;-81
2021/09/19 07:42:53;;;;;;;20.30;16.30;;;461.40;2380.80;;;;;;5058797;28;20198;-81
2021/09/19 07:45:19;;;;;;;17.05;15.18;;;461.50;2380.80;;;;;;5076492;28;20044;-82
2021/09/19 07:47:46;;;;;;;17.58;15.10;;;461.60;2380.80;;;;;;5058702;28;20025;-81
2021/09/19 07:50:13;;;;;;;18.45;13.35;;;461.70;2380.80;;;;;;5077001;28;20024;-80
2021/09/19 07:52:39;;;;;;;17.48;13.75;;;461.60;2380.80;;;;;;5058694;28;20074;-82
2021/09/19 07:55:05;;;;;;;14.48;11.52;;;461.70;2380.80;;;;;;5076721;28;20039;-82
2021/09/19 07:57:32;;;;;;;16.63;13.23;;;461.70;2380.80;;;;;;5059185;28;20024;-83
2021/09/19 07:59:58;;;;;;;14.07;12.57;;;461.70;2380.80;;;;;;5058682;28;20025;-82
2021/09/19 08:02:24;;;;;;;13.95;12.45;;;486.40;2380.80;;;;;;5058586;28;20029;-81
2021/09/19 08:04:50;;;;;;;24.35;18.70;;;486.40;2380.80;;;;;;5058378;28;20029;-83
2021/09/19 08:07:20;;;;;;;23.02;17.35;;;486.50;2380.80;;;;;;5058489;28;20533;-82
2021/09/19 08:09:46;;;;;;;18.58;16.58;;;486.50;2380.80;;;;;;5058530;28;20024;-82
2021/09/19 08:12:12;;;;;;;15.73;14.02;;;486.50;2380.80;;;;;;5058113;28;20028;-82
2021/09/19 08:14:38;;;;;;;14.93;13.35;;;486.50;2380.80;;;;;;5058034;28;20384;-82
2021/09/19 08:17:04;;;;;;;18.00;13.38;;;486.50;2380.80;;;;;;5058473;28;20055;-82
2021/09/19 08:19:30;;;;;;;12.05;10.85;;;486.70;2380.80;;;;;;5076037;28;20418;-81
2021/09/19 08:21:55;;;;;;;11.48;9.48;;;486.70;2380.80;;;;;;5076723;28;20037;-82
2021/09/19 08:24:23;;;;;;;12.70;9.98;;;486.80;2380.80;;;;;;5076081;28;20021;-84
2021/09/19 08:26:49;;;;;;;9.60;8.60;;;486.80;2380.80;;;;;;5058094;28;20024;-82
2021/09/19 08:29:16;;;;;;;62.20;56.10;;;486.80;2380.80;;;;;;5058237;28;20021;-83
2021/09/19 08:31:42;;;;;;;23.33;18.60;;;487.00;2380.80;;;;;;5058550;28;20020;-83
2021/09/19 08:34:09;;;;;;;11.95;10.85;;;487.00;2380.80;;;;;;5058864;28;20036;-84
2021/09/19 08:36:36;;;;;;;10.88;9.30;;;487.00;2380.80;;;;;;5058416;28;20025;-82
2021/09/19 08:39:05;;;;;;;13.02;9.85;;;487.00;2380.80;;;;;;5075801;28;20025;-80
2021/09/19 08:41:31;;;;;;;12.82;11.52;;;487.10;2380.80;;;;;;5057579;28;20033;-81
2021/09/19 08:43:57;;;;;;;8.75;7.85;;;487.10;2380.80;;;;;;5057393;28;20059;-82
2021/09/19 08:46:24;;;;;;;10.88;7.82;;;487.10;2380.80;;;;;;5057869;28;20410;-80
2021/09/19 08:48:50;;;;;;;15.07;13.68;;;487.10;2380.80;;;;;;5057385;28;20052;-79
2021/09/19 08:51:17;;;;;;;11.30;10.10;;;487.10;2380.80;;;;;;5057654;28;20451;-79
2021/09/19 08:53:43;;;;;;;12.75;10.73;;;487.10;2380.80;;;;;;5057635;28;20380;-78
2021/09/19 08:56:10;;;;;;;11.52;10.30;;;487.10;2380.80;;;;;;5057338;28;20391;-80
2021/09/19 08:58:37;;;;;;;13.15;10.07;;;487.00;2380.80;;;;;;5057542;28;20021;-79
2021/09/19 09:01:05;;;;;;;14.38;10.57;;;487.20;2380.80;;;;;;5074639;28;20029;-79
2021/09/19 09:03:31;;;;;;;17.00;14.35;;;487.20;2380.80;;;;;;5057243;28;20085;-79
2021/09/19 09:06:03;;;;;;;19.45;15.82;;;487.10;2380.80;;;;;;5057344;28;20119;-79
2021/09/19 09:08:31;;;;;;;15.00;12.55;;;487.30;2380.80;;;;;;5057084;28;20027;-80
2021/09/19 09:10:59;;;;;;;17.15;13.27;;;487.30;2380.80;;;;;;5057324;28;20025;-80
2021/09/19 09:13:28;;;;;;;16.13;12.70;;;512.00;2380.80;;;;;;5075295;28;20502;-80
2021/09/19 09:16:17;;;;;;;17.90;16.10;;;487.30;2380.80;;;;;;5056834;28;20032;-79
2021/09/19 09:18:52;;;;;;;25.17;17.23;;;512.10;2380.80;;;;;;5056704;28;20025;-80
2021/09/19 09:21:24;;;;;;;19.00;15.23;;;512.10;2380.80;;;;;;5056920;28;20037;-80
2021/09/19 09:23:55;;;;;;;18.65;16.02;;;512.30;2380.80;;;;;;5056669;28;20032;-79
2021/09/19 09:26:33;;;;;;;19.00;13.50;;;512.40;2380.80;;;;;;5055938;28;20071;-80
2021/09/19 09:29:05;;;;;;;22.10;14.63;;;512.20;2380.80;;;;;;5056609;28;20021;-79
2021/09/19 09:31:39;;;;;;;22.10;15.67;;;512.30;2380.80;;;;;;5056812;28;20127;-79
2021/09/19 09:34:18;;;;;;;15.35;13.75;;;512.30;2380.80;;;;;;5056962;28;20466;-81
2021/09/19 09:36:53;;;;;;;16.98;14.32;;;512.40;2380.80;;;;;;5056572;28;20453;-83
2021/09/19 09:39:23;;;;;;;16.90;13.50;;;512.60;2380.80;;;;;;5056762;28;20055;-80
2021/09/19 09:41:51;;;;;;;19.30;15.38;;;512.80;2380.80;;;;;;5056757;28;20372;-81
2021/09/19 09:44:38;;;;;;;14.95;13.13;;;512.90;2380.80;;;;;;5055891;28;20052;-80
2021/09/19 09:47:06;;;;;;;15.25;13.68;;;512.90;2380.80;;;;;;5056494;28;20028;-79
2021/09/19 09:49:54;;;;;;;16.02;12.15;;;537.90;2406.40;;;;;;5056492;28;20423;-81
2021/09/19 09:52:28;;;;;;;15.20;13.60;;;537.80;2406.40;;;;;;5056555;28;20484;-79
2021/09/19 09:54:57;;;;;;;14.10;12.60;;;537.80;2406.40;;;;;;5056523;28;20020;-81
2021/09/19 09:57:35;;;;;;;17.98;13.98;;;537.70;2406.40;;;;;;5056195;28;20029;-80
2021/09/19 10:00:06;;;;;;;15.32;13.73;;;537.60;2406.40;;;;;;5074271;28;20028;-81
2021/09/19 10:02:37;;;;;;;20.50;17.33;;;537.70;2406.40;;;;;;5056234;28;20502;-83
2021/09/19 10:05:07;;;;;;;15.80;14.20;;;537.70;2406.40;;;;;;5056093;28;20464;-82
2021/09/19 10:07:38;;;;;;;11.68;10.52;;;537.80;2406.40;;;;;;5056374;28;20020;-82
2021/09/19 10:10:06;;;;;;;11.20;10.10;;;538.00;2406.40;;;;;;5073982;28;20021;-80
2021/09/19 10:12:33;;;;;;;11.88;9.75;;;538.00;2406.40;;;;;;5055752;28;20033;-81
2021/09/19 10:14:59;;;;;;;14.55;12.85;;;538.00;2406.40;;;;;;5056270;28;20024;-81
2021/09/19 10:17:31;;;;;;;20.00;18.00;;;538.00;2406.40;;;;;;5074150;28;20028;-82
2021/09/19 10:19:58;;;;;;;21.90;19.75;;;538.10;2406.40;;;;;;5056059;28;20024;-82
2021/09/19 10:22:43;;;;;;;12.15;10.95;;;538.20;2406.40;;;;;;5055927;28;20509;-82
2021/09/19 10:25:29;;;;;;;11.93;10.43;;;538.20;2406.40;;;;;;5055958;28;20056;-82
2021/09/19 10:28:25;;;;;;;12.25;10.73;;;538.20;2406.40;;;;;;5037803;28;20062;-83
2021/09/19 10:31:09;;;;;;;10.73;9.50;;;538.40;2406.40;;;;;;5055890;28;20538;-81
2021/09/19 10:33:44;;;;;;;9.40;8.35;;;538.40;2406.40;;;;;;5052878;28;20043;-81
2021/09/19 10:36:53;;;;;;;10.27;8.90;;;538.50;2406.40;;;;;;5055120;28;20033;-80
2021/09/19 10:39:38;;;;;;;10.10;9.02;;;563.30;2432.00;;;;;;5054899;28;20035;-81
2021/09/19 10:42:06;;;;;;;10.07;9.00;;;563.50;2432.00;;;;;;5053977;28;20052;-79
2021/09/19 10:44:43;;;;;;;13.02;9.38;;;563.70;2432.00;;;;;;5062450;28;20071;-78
2021/09/19 10:47:10;;;;;;;11.95;9.65;;;564.00;2432.00;;;;;;5072288;28;20060;-78
2021/09/19 10:49:36;;;;;;;16.50;10.80;;;563.80;2432.00;;;;;;5071630;28;20095;-79
2021/09/19 10:52:02;;;;;;;14.93;9.93;;;563.80;2432.00;;;;;;5056600;28;20041;-79
2021/09/19 10:54:50;;;;;;;13.13;10.52;;;563.70;2432.00;;;;;;5074158;28;20028;-79
2021/09/19 10:57:28;;;;;;;23.80;21.50;;;564.00;2432.00;;;;;;5077030;28;20024;-76
2021/09/19 11:00:16;;;;;;;14.85;12.35;;;588.80;2432.00;;;;;;5071953;28;20012;-79
2021/09/19 11:02:58;;;;;;;16.42;13.60;;;589.00;2432.00;;;;;;5073166;28;20047;-79
2021/09/19 11:05:24;;;;;;;17.63;13.45;;;589.10;2432.00;;;;;;5074657;28;20044;-78
2021/09/19 11:07:51;;;;;;;14.25;11.65;;;589.70;2432.00;;;;;;5075210;28;20028;-77
2021/09/19 11:10:17;;;;;;;11.85;10.55;;;589.50;2432.00;;;;;;5073817;28;20025;-79
2021/09/19 11:12:50;;;;;;;11.45;9.95;;;589.50;2432.00;;;;;;5055317;28;20532;-79
2021/09/19 11:15:26;;;;;;;10.70;9.23;;;589.70;2432.00;;;;;;5055605;28;20025;-79
2021/09/19 11:17:52;;;;;;;13.20;11.80;;;589.60;2432.00;;;;;;5072866;28;20070;-80
2021/09/19 11:20:21;;;;;;;13.07;9.60;;;589.50;2432.00;;;;;;5063787;28;20070;-78
2021/09/19 11:22:53;;;;;;;13.60;10.85;;;589.30;2432.00;;;;;;5067738;28;20074;-80
2021/09/19 11:25:21;;;;;;;13.23;10.82;;;589.00;2432.00;;;;;;5058341;28;20032;-79
2021/09/19 11:27:49;;;;;;;13.98;11.20;;;589.00;2432.00;;;;;;5067612;28;20056;-79
2021/09/19 11:30:18;;;;;;;15.73;12.07;;;589.10;2432.00;;;;;;5074530;28;20042;-78
2021/09/19 11:32:45;;;;;;;16.38;13.60;;;589.10;2432.00;;;;;;5062867;28;20748;-76
2021/09/19 11:35:12;;;;;;;12.02;10.48;;;589.20;2432.00;;;;;;5064172;28;20079;-79
2021/09/19 11:37:38;;;;;;;10.07;9.07;;;589.10;2432.00;;;;;;5070493;28;20021;-80
2021/09/19 11:40:09;;;;;;;16.17;10.60;;;589.30;2432.00;;;;;;5071871;28;20053;-78
2021/09/19 11:42:37;;;;;;;10.80;9.70;;;589.70;2432.00;;;;;;5065828;28;20071;-80
2021/09/19 11:45:09;;;;;;;9.18;8.27;;;614.40;2432.00;;;;;;5056916;28;20285;-78
2021/09/19 11:47:38;;;;;;;9.40;8.43;;;589.60;2432.00;;;;;;5070966;28;20051;-77
2021/09/19 11:50:06;;;;;;;11.30;9.98;;;589.50;2432.00;;;;;;5066971;28;20059;-78
2021/09/19 11:52:32;;;;;;;12.77;11.15;;;589.50;2432.00;;;;;;5074487;28;20120;-78
2021/09/19 11:54:58;;;;;;;13.90;12.50;;;589.70;2432.00;;;;;;5074418;28;20025;-77
2021/09/19 11:57:24;;;;;;;12.98;9.95;;;614.40;2432.00;;;;;;5074034;28;20078;-78
2021/09/19 11:59:50;;;;;;;9.93;7.45;;;615.20;2432.00;;;;;;5073275;28;20028;-78
2021/09/19 12:02:17;;;;;;;12.88;10.27;;;640.40;2432.00;;;;;;5057391;28;20127;-79
2021/09/19 12:04:47;;;;;;;7.53;6.53;;;640.80;2432.00;;;;;;5057375;28;20468;-78
2021/09/19 12:07:14;;;;;;;7.65;6.05;;;665.60;2432.00;;;;;;5076264;28;20432;-78
2021/09/19 12:09:53;;;;;;;6.28;4.97;;;640.90;2432.00;;;;;;5075274;28;20380;-79